Time;durP1;ratioP1;P1;durP2;ratioP2;P2;SDS_P1;SDS_P2;PMS_P1;PMS_P2;Temp;Humidity;BMP_temperature;BMP_pressure;BME280_temperature;BME280_humidity;BME280_pressure;Samples;Min_cycle;Max_cycle;Signal;HPM_P1;HPM_P2
2021/01/21 00:01:13;;;;;;;2.55;1.00;;;;;;;;;;5129947;28;20023;-84
2021/01/21 00:03:38;;;;;;;1.83;0.60;;;;;;;;;;5130999;28;20024;-84
2021/01/21 00:06:04;;;;;;;3.50;0.77;;;;;;;;;;5133878;27;20011;-83
2021/01/21 00:08:29;;;;;;;3.15;0.70;;;;;;;;;;5134337;27;20015;-83
2021/01/21 00:10:54;;;;;;;4.50;1.10;;;;;;;;;;5135167;27;20031;-83
2021/01/21 00:13:19;;;;;;;4.82;1.52;;;;;;;;;;5135156;27;20462;-83
2021/01/21 00:15:44;;;;;;;7.43;1.20;;;;;;;;;;5135340;27;20027;-83
2021/01/21 00:18:10;;;;;;;2.97;1.10;;;;;;;;;;5134560;27;20015;-83
2021/01/21 00:20:35;;;;;;;2.38;1.00;;;;;;;;;;5134216;27;20466;-84
2021/01/21 00:23:00;;;;;;;6.07;1.15;;;;;;;;;;5135128;27;20027;-83
2021/01/21 00:25:25;;;;;;;1.92;0.77;;;;;;;;;;5135005;27;20034;-84
2021/01/21 00:27:51;;;;;;;2.78;1.00;;;;;;;;;;5135308;27;20023;-84
2021/01/21 00:30:16;;;;;;;2.15;0.60;;;;;;;;;;5134375;27;20054;-83
2021/01/21 00:32:41;;;;;;;3.53;1.35;;;;;;;;;;5128493;27;20027;-84
2021/01/21 00:35:07;;;;;;;1.83;0.77;;;;;;;;;;5134834;27;20019;-83
2021/01/21 00:37:32;;;;;;;3.45;1.20;;;;;;;;;;5134879;27;20023;-83
2021/01/21 00:39:57;;;;;;;6.10;1.48;;;;;;;;;;5134731;27;20457;-83
2021/01/21 00:42:22;;;;;;;3.80;1.20;;;;;;;;;;5134406;27;20056;-83
2021/01/21 00:44:47;;;;;;;1.48;0.55;;;;;;;;;;5134284;27;20022;-83
2021/01/21 00:47:13;;;;;;;3.53;1.30;;;;;;;;;;5134164;27;20484;-83
2021/01/21 00:49:38;;;;;;;3.38;1.27;;;;;;;;;;5136052;27;20076;-84
2021/01/21 00:52:03;;;;;;;2.78;1.10;;;;;;;;;;5134278;27;20031;-82
2021/01/21 00:54:28;;;;;;;4.13;0.90;;;;;;;;;;5134636;27;20435;-83
2021/01/21 00:56:53;;;;;;;3.28;1.17;;;;;;;;;;5134623;27;20047;-83
2021/01/21 00:59:19;;;;;;;2.83;1.17;;;;;;;;;;5134153;27;20020;-83
2021/01/21 01:01:44;;;;;;;2.15;1.00;;;;;;;;;;5134541;27;20611;-83
2021/01/21 01:04:09;;;;;;;3.90;1.13;;;;;;;;;;5133708;27;20465;-84
2021/01/21 01:06:34;;;;;;;5.38;1.08;;;;;;;;;;5134053;27;20031;-83
2021/01/21 01:08:59;;;;;;;6.18;1.08;;;;;;;;;;5133867;27;20517;-83
2021/01/21 01:11:24;;;;;;;1.35;0.88;;;;;;;;;;5134359;27;20075;-83
2021/01/21 01:13:50;;;;;;;1.70;0.57;;;;;;;;;;5134067;27;20023;-83
2021/01/21 01:16:15;;;;;;;5.70;1.10;;;;;;;;;;5134712;27;20127;-83
2021/01/21 01:18:40;;;;;;;5.22;1.45;;;;;;;;;;5134244;27;20069;-83
2021/01/21 01:21:05;;;;;;;4.03;1.30;;;;;;;;;;5134004;27;20023;-83
2021/01/21 01:23:31;;;;;;;2.60;0.85;;;;;;;;;;5133816;27;20473;-83
2021/01/21 01:25:56;;;;;;;8.23;0.85;;;;;;;;;;5133992;27;20018;-83
2021/01/21 01:28:21;;;;;;;2.67;1.15;;;;;;;;;;5133615;27;20681;-83
2021/01/21 01:30:47;;;;;;;1.05;0.70;;;;;;;;;;5133537;27;20030;-84
2021/01/21 01:33:12;;;;;;;4.20;0.90;;;;;;;;;;5134867;27;20087;-84
2021/01/21 01:35:37;;;;;;;4.47;1.25;;;;;;;;;;5133454;27;20012;-83
2021/01/21 01:38:02;;;;;;;4.78;1.35;;;;;;;;;;5135270;27;20460;-83
2021/01/21 01:40:27;;;;;;;3.85;0.95;;;;;;;;;;5133619;27;20015;-84
2021/01/21 01:42:53;;;;;;;4.07;1.50;;;;;;;;;;5133733;27;20061;-83
2021/01/21 01:45:18;;;;;;;3.90;1.08;;;;;;;;;;5133168;27;20019;-83
2021/01/21 01:47:44;;;;;;;6.35;1.08;;;;;;;;;;5133571;27;20457;-83
2021/01/21 01:50:10;;;;;;;3.60;1.00;;;;;;;;;;5133102;27;20051;-83
2021/01/21 01:52:41;;;;;;;2.88;1.00;;;;;;;;;;5133237;27;20043;-83
2021/01/21 01:55:07;;;;;;;4.50;1.60;;;;;;;;;;5134516;27;20431;-84
2021/01/21 01:57:32;;;;;;;4.40;1.25;;;;;;;;;;5132950;27;20390;-84
2021/01/21 01:59:59;;;;;;;2.38;1.00;;;;;;;;;;5133146;27;20024;-84
2021/01/21 02:02:24;;;;;;;4.05;1.10;;;;;;;;;;5133047;27;20016;-83
2021/01/21 02:04:49;;;;;;;4.18;1.08;;;;;;;;;;5134553;27;20019;-83
2021/01/21 02:07:14;;;;;;;2.63;1.13;;;;;;;;;;5133249;27;20027;-83
2021/01/21 02:09:40;;;;;;;1.65;0.85;;;;;;;;;;5132575;27;20398;-84
2021/01/21 02:12:17;;;;;;;7.40;1.27;;;;;;;;;;5132739;27;20359;-83
2021/01/21 02:15:01;;;;;;;3.40;1.20;;;;;;;;;;5132494;27;20015;-83
2021/01/21 02:17:42;;;;;;;4.80;1.23;;;;;;;;;;5132963;27;20023;-83
2021/01/21 02:20:07;;;;;;;4.65;1.20;;;;;;;;;;5121700;27;20042;-83
2021/01/21 02:22:36;;;;;;;4.03;1.10;;;;;;;;;;5132383;27;20027;-84
2021/01/21 02:25:20;;;;;;;4.78;1.40;;;;;;;;;;5133941;27;20030;-83
2021/01/21 02:27:45;;;;;;;2.03;1.13;;;;;;;;;;5132112;27;20599;-83
2021/01/21 02:30:16;;;;;;;4.05;1.42;;;;;;;;;;5132350;27;20106;-83
2021/01/21 02:32:50;;;;;;;4.22;0.95;;;;;;;;;;5132751;27;20015;-82
2021/01/21 02:35:17;;;;;;;4.90;1.13;;;;;;;;;;5133415;27;20082;-84
2021/01/21 02:37:53;;;;;;;4.22;0.75;;;;;;;;;;5132367;27;20022;-83
2021/01/21 02:40:18;;;;;;;3.00;1.20;;;;;;;;;;5132696;27;20033;-83
2021/01/21 02:42:44;;;;;;;1.35;0.77;;;;;;;;;;5132527;27;20019;-84
2021/01/21 02:45:10;;;;;;;3.10;1.17;;;;;;;;;;5132095;27;20047;-82
2021/01/21 02:47:35;;;;;;;4.13;1.08;;;;;;;;;;5132513;27;20053;-83
2021/01/21 02:50:01;;;;;;;4.93;1.30;;;;;;;;;;5132335;27;20106;-83
2021/01/21 02:52:38;;;;;;;3.33;1.20;;;;;;;;;;5131979;27;20015;-83
2021/01/21 02:55:36;;;;;;;3.83;1.05;;;;;;;;;;5131575;27;20377;-83
2021/01/21 02:58:05;;;;;;;3.50;1.25;;;;;;;;;;5086250;27;20544;-83
2021/01/21 03:00:31;;;;;;;3.17;0.80;;;;;;;;;;5133320;27;20015;-83
2021/01/21 03:02:57;;;;;;;1.67;0.55;;;;;;;;;;5132230;27;20122;-83
2021/01/21 03:05:24;;;;;;;3.45;0.80;;;;;;;;;;5131705;27;20027;-83
2021/01/21 03:07:49;;;;;;;2.03;1.05;;;;;;;;;;5132028;27;20033;-84
2021/01/21 03:10:19;;;;;;;4.68;1.40;;;;;;;;;;5132065;27;20408;-83
2021/01/21 03:12:50;;;;;;;3.28;1.20;;;;;;;;;;5131602;27;20050;-83
2021/01/21 03:15:15;;;;;;;2.38;1.15;;;;;;;;;;5133577;27;20374;-83
2021/01/21 03:17:41;;;;;;;5.10;1.25;;;;;;;;;;5132028;27;20015;-83
2021/01/21 03:20:06;;;;;;;5.43;1.05;;;;;;;;;;5131754;27;20023;-84
2021/01/21 03:22:31;;;;;;;4.80;1.25;;;;;;;;;;5131656;27;20035;-83
2021/01/21 03:24:56;;;;;;;7.55;1.60;;;;;;;;;;5129412;27;20080;-83
2021/01/21 03:27:22;;;;;;;3.92;1.30;;;;;;;;;;5129389;27;20385;-84
2021/01/21 03:29:47;;;;;;;4.80;1.25;;;;;;;;;;5130429;28;20165;-83
2021/01/21 03:32:12;;;;;;;5.80;1.30;;;;;;;;;;5129944;28;20381;-83
2021/01/21 03:34:37;;;;;;;3.33;1.30;;;;;;;;;;5129705;28;20015;-83
2021/01/21 03:37:02;;;;;;;4.00;1.30;;;;;;;;;;5129792;28;20030;-83
2021/01/21 03:39:28;;;;;;;7.57;1.90;;;;;;;;;;5131884;27;20411;-83
2021/01/21 03:41:53;;;;;;;5.70;1.25;;;;;;;;;;5133680;27;20026;-83
2021/01/21 03:44:18;;;;;;;6.13;1.33;;;;;;;;;;5135099;27;20015;-83
2021/01/21 03:46:44;;;;;;;11.85;2.38;;;;;;;;;;5134009;27;20015;-82
2021/01/21 03:49:09;;;;;;;2.87;1.10;;;;;;;;;;5130775;27;20458;-81
2021/01/21 03:51:34;;;;;;;4.27;1.27;;;;;;;;;;5134075;27;20020;-81
2021/01/21 03:53:59;;;;;;;4.10;0.80;;;;;;;;;;5134052;27;20039;-80
2021/01/21 03:56:25;;;;;;;3.87;0.60;;;;;;;;;;5135165;27;20019;-81
2021/01/21 03:58:50;;;;;;;3.43;0.67;;;;;;;;;;5135913;27;20060;-80
2021/01/21 04:01:15;;;;;;;6.00;0.70;;;;;;;;;;5136665;27;20022;-80
2021/01/21 04:03:40;;;;;;;2.13;0.60;;;;;;;;;;5135627;27;20031;-80
2021/01/21 04:06:06;;;;;;;8.67;0.70;;;;;;;;;;5135390;27;20083;-80
2021/01/21 04:08:31;;;;;;;3.50;0.73;;;;;;;;;;5134895;27;20075;-80
2021/01/21 04:10:56;;;;;;;7.67;0.97;;;;;;;;;;5135139;27;20419;-80
2021/01/21 04:13:21;;;;;;;4.13;0.87;;;;;;;;;;5134932;27;20027;-80
2021/01/21 04:15:47;;;;;;;5.67;0.60;;;;;;;;;;5134869;27;20019;-80
2021/01/21 04:18:12;;;;;;;5.13;0.70;;;;;;;;;;5136524;27;20026;-80
2021/01/21 04:20:37;;;;;;;3.47;0.43;;;;;;;;;;5135297;27;20453;-80
2021/01/21 04:23:02;;;;;;;4.20;0.60;;;;;;;;;;5136300;27;20043;-80
2021/01/21 04:25:28;;;;;;;4.53;0.80;;;;;;;;;;5134932;27;20388;-81
2021/01/21 04:27:53;;;;;;;3.43;0.70;;;;;;;;;;5135668;27;20137;-80
2021/01/21 04:30:18;;;;;;;6.13;0.90;;;;;;;;;;5135387;27;20019;-80
2021/01/21 04:32:44;;;;;;;9.20;0.87;;;;;;;;;;5134628;27;20046;-80
2021/01/21 04:35:09;;;;;;;8.30;0.73;;;;;;;;;;5134962;27;20019;-80
2021/01/21 04:37:34;;;;;;;3.73;0.80;;;;;;;;;;5134730;27;20085;-80
2021/01/21 04:39:59;;;;;;;5.77;0.60;;;;;;;;;;5134904;27;20011;-80
2021/01/21 04:42:25;;;;;;;5.40;0.60;;;;;;;;;;5135674;27;20385;-81
2021/01/21 04:44:50;;;;;;;4.43;0.67;;;;;;;;;;5134747;27;20063;-80
2021/01/21 04:47:16;;;;;;;5.53;0.63;;;;;;;;;;5134669;27;20019;-80
2021/01/21 04:49:41;;;;;;;6.13;0.80;;;;;;;;;;5134181;27;20035;-81
2021/01/21 04:52:07;;;;;;;7.77;0.73;;;;;;;;;;5133328;27;20023;-80
2021/01/21 04:54:39;;;;;;;8.57;1.00;;;;;;;;;;5135698;27;20022;-80
2021/01/21 04:57:08;;;;;;;5.38;0.93;;;;;;;;;;5135794;27;20019;-81
2021/01/21 04:59:35;;;;;;;8.87;0.73;;;;;;;;;;5134601;27;20030;-81
2021/01/21 05:02:01;;;;;;;4.37;0.83;;;;;;;;;;5134553;27;20019;-81
2021/01/21 05:04:26;;;;;;;5.07;0.80;;;;;;;;;;5134393;27;20525;-80
2021/01/21 05:06:53;;;;;;;7.13;1.10;;;;;;;;;;5133971;27;20103;-80
2021/01/21 05:09:19;;;;;;;4.47;0.70;;;;;;;;;;5134054;27;20034;-81
2021/01/21 05:11:44;;;;;;;9.67;1.10;;;;;;;;;;5134193;27;20019;-81
2021/01/21 05:14:10;;;;;;;2.33;0.60;;;;;;;;;;5134294;27;20482;-80
2021/01/21 05:16:35;;;;;;;7.67;1.13;;;;;;;;;;5133857;27;20025;-80
2021/01/21 05:19:00;;;;;;;9.30;0.80;;;;;;;;;;5134400;27;20338;-81
2021/01/21 05:21:25;;;;;;;6.27;0.93;;;;;;;;;;5134157;27;20023;-81
2021/01/21 05:23:54;;;;;;;6.10;0.73;;;;;;;;;;5133692;27;20015;-81
2021/01/21 05:26:19;;;;;;;6.00;0.90;;;;;;;;;;5133392;27;20023;-81
2021/01/21 05:28:44;;;;;;;12.60;1.20;;;;;;;;;;5134015;27;20354;-81
2021/01/21 05:31:10;;;;;;;5.77;0.83;;;;;;;;;;5133992;27;20019;-81
2021/01/21 05:33:35;;;;;;;13.03;1.30;;;;;;;;;;5134791;27;20047;-81
2021/01/21 05:36:01;;;;;;;10.87;1.67;;;;;;;;;;5134943;27;20052;-81
2021/01/21 05:38:30;;;;;;;10.67;1.17;;;;;;;;;;5133541;27;20011;-81
2021/01/21 05:40:57;;;;;;;10.70;0.90;;;;;;;;;;5133429;27;20007;-81
2021/01/21 05:43:22;;;;;;;12.00;1.30;;;;;;;;;;5133600;27;20023;-81
2021/01/21 05:45:47;;;;;;;7.87;0.67;;;;;;;;;;5134951;27;20007;-81
2021/01/21 05:48:13;;;;;;;13.60;1.23;;;;;;;;;;5134680;27;20114;-81
2021/01/21 05:50:38;;;;;;;9.43;0.90;;;;;;;;;;5133405;27;20019;-81
2021/01/21 05:53:08;;;;;;;11.43;1.47;;;;;;;;;;5133017;27;20068;-81
2021/01/21 05:55:35;;;;;;;10.70;1.30;;;;;;;;;;5134748;27;20355;-81
2021/01/21 05:58:00;;;;;;;6.83;1.10;;;;;;;;;;5133373;27;20019;-81
2021/01/21 06:00:26;;;;;;;12.07;1.67;;;;;;;;;;5133315;27;20107;-81
2021/01/21 06:02:52;;;;;;;12.80;1.73;;;;;;;;;;5133986;27;20031;-81
2021/01/21 06:05:19;;;;;;;10.20;1.20;;;;;;;;;;5133957;27;20015;-81
2021/01/21 06:07:45;;;;;;;8.87;1.17;;;;;;;;;;5133367;27;20023;-81
2021/01/21 06:10:12;;;;;;;9.03;1.20;;;;;;;;;;5133056;27;20400;-81
2021/01/21 06:12:37;;;;;;;13.33;1.10;;;;;;;;;;5133370;27;20160;-81
2021/01/21 06:15:03;;;;;;;12.20;1.40;;;;;;;;;;5133109;27;20501;-81
2021/01/21 06:17:28;;;;;;;18.73;1.60;;;;;;;;;;5132970;27;20011;-81
2021/01/21 06:19:54;;;;;;;8.80;1.27;;;;;;;;;;5132410;27;20377;-82
2021/01/21 06:22:23;;;;;;;14.13;1.37;;;;;;;;;;5133064;27;20394;-81
2021/01/21 06:24:49;;;;;;;8.20;1.00;;;;;;;;;;5132583;27;20088;-81
2021/01/21 06:27:15;;;;;;;18.70;1.83;;;;;;;;;;5132680;27;20023;-81
2021/01/21 06:29:42;;;;;;;15.83;1.60;;;;;;;;;;5132780;27;20027;-81
2021/01/21 06:32:08;;;;;;;9.80;1.40;;;;;;;;;;5132523;27;20067;-81
2021/01/21 06:34:38;;;;;;;17.23;1.33;;;;;;;;;;5132610;27;20023;-81
2021/01/21 06:37:04;;;;;;;8.40;1.00;;;;;;;;;;5132435;27;20021;-81
2021/01/21 06:39:38;;;;;;;13.50;1.60;;;;;;;;;;5131936;27;20018;-81
2021/01/21 06:42:04;;;;;;;19.53;1.50;;;;;;;;;;5132519;27;20026;-81
2021/01/21 06:44:29;;;;;;;9.47;1.30;;;;;;;;;;5131277;27;20489;-81
2021/01/21 06:46:55;;;;;;;14.13;1.97;;;;;;;;;;5131006;27;20015;-82
2021/01/21 06:49:21;;;;;;;11.83;1.40;;;;;;;;;;5130923;27;20030;-82
2021/01/21 06:51:47;;;;;;;13.17;1.60;;;;;;;;;;5131108;27;20046;-82
2021/01/21 06:54:12;;;;;;;12.03;1.70;;;;;;;;;;5131809;27;20080;-81
2021/01/21 06:56:38;;;;;;;12.40;1.63;;;;;;;;;;5131439;27;20530;-82
2021/01/21 06:59:03;;;;;;;11.93;2.10;;;;;;;;;;5131526;27;20038;-82
2021/01/21 07:01:28;;;;;;;11.37;2.10;;;;;;;;;;5129404;27;20327;-81
2021/01/21 07:03:53;;;;;;;11.43;1.97;;;;;;;;;;5133011;27;20129;-82
2021/01/21 07:06:19;;;;;;;14.47;2.17;;;;;;;;;;5131638;27;20701;-81
2021/01/21 07:09:03;;;;;;;16.63;2.23;;;;;;;;;;5131448;27;20019;-82
2021/01/21 07:11:28;;;;;;;11.00;1.83;;;;;;;;;;5131847;27;20015;-82
2021/01/21 07:13:53;;;;;;;13.27;1.87;;;;;;;;;;5129220;27;20018;-81
2021/01/21 07:16:19;;;;;;;15.27;1.87;;;;;;;;;;5131596;27;20355;-82
2021/01/21 07:18:45;;;;;;;16.13;1.97;;;;;;;;;;5132919;27;20022;-82
2021/01/21 07:21:12;;;;;;;20.93;2.40;;;;;;;;;;5131594;27;20015;-82
2021/01/21 07:23:37;;;;;;;16.07;2.30;;;;;;;;;;5132933;27;20011;-82
2021/01/21 07:26:21;;;;;;;16.77;2.20;;;;;;;;;;5129702;27;20041;-82
2021/01/21 07:28:58;;;;;;;16.40;2.43;;;;;;;;;;5129980;27;20064;-82
2021/01/21 07:31:23;;;;;;;14.90;2.73;;;;;;;;;;5129916;27;20122;-82
2021/01/21 07:34:09;;;;;;;15.23;1.80;;;;;;;;;;5131669;28;20179;-82
2021/01/21 07:36:34;;;;;;;14.83;2.07;;;;;;;;;;5130744;27;20470;-82
2021/01/21 07:38:59;;;;;;;16.57;1.70;;;;;;;;;;5131178;28;20035;-82
2021/01/21 07:41:42;;;;;;;13.00;2.27;;;;;;;;;;5131496;28;20050;-82
2021/01/21 07:44:08;;;;;;;13.73;1.83;;;;;;;;;;5131574;28;20034;-81
2021/01/21 07:46:33;;;;;;;16.63;2.00;;;;;;;;;;5130894;28;20024;-82
2021/01/21 07:49:27;;;;;;;9.27;1.60;;;;;;;;;;5131359;28;20069;-82
2021/01/21 07:51:59;;;;;;;13.30;2.00;;;;;;;;;;5113780;28;20031;-82
2021/01/21 07:54:24;;;;;;;8.90;1.73;;;;;;;;;;5130761;27;20370;-82
2021/01/21 07:56:50;;;;;;;16.47;2.47;;;;;;;;;;5131052;28;20015;-82
2021/01/21 07:59:15;;;;;;;10.67;1.93;;;;;;;;;;5131618;28;20022;-82
2021/01/21 08:01:59;;;;;;;11.93;2.43;;;;;;;;;;5128032;28;20015;-82
2021/01/21 08:04:25;;;;;;;10.87;2.00;;;;;;;;;;5130261;28;20094;-82
2021/01/21 08:06:57;;;;;;;13.83;2.27;;;;;;;;;;5130834;28;20015;-82
2021/01/21 08:09:22;;;;;;;10.27;2.08;;;;;;;;;;5128558;27;20715;-82
2021/01/21 08:11:51;;;;;;;9.93;1.73;;;;;;;;;;5131247;28;20072;-81
2021/01/21 08:14:17;;;;;;;13.03;1.20;;;;;;;;;;5137230;27;20023;-81
2021/01/21 08:16:43;;;;;;;6.43;1.20;;;;;;;;;;5132855;27;20023;-82
2021/01/21 08:19:08;;;;;;;7.70;1.07;;;;;;;;;;5125268;27;20058;-82
2021/01/21 08:21:33;;;;;;;13.90;1.60;;;;;;;;;;5116627;27;20027;-82
2021/01/21 08:24:08;;;;;;;4.83;1.17;;;;;;;;;;5114753;28;20466;-81
2021/01/21 08:26:34;;;;;;;10.07;1.37;;;;;;;;;;5128445;27;20019;-81
2021/01/21 08:28:59;;;;;;;12.57;1.70;;;;;;;;;;5127949;27;20016;-81
2021/01/21 08:31:34;;;;;;;11.20;1.10;;;;;;;;;;5133923;27;20424;-82
2021/01/21 08:34:00;;;;;;;7.33;1.43;;;;;;;;;;5133656;27;20042;-82
2021/01/21 08:36:25;;;;;;;9.33;1.30;;;;;;;;;;5134765;27;20019;-82
2021/01/21 08:38:51;;;;;;;10.50;1.50;;;;;;;;;;5135083;27;20098;-82
2021/01/21 08:41:18;;;;;;;7.00;1.20;;;;;;;;;;5134575;27;20046;-82
2021/01/21 08:43:44;;;;;;;11.27;1.20;;;;;;;;;;5135696;27;20071;-82
2021/01/21 08:46:17;;;;;;;8.03;1.10;;;;;;;;;;5135370;27;20031;-82
2021/01/21 08:48:42;;;;;;;12.17;1.70;;;;;;;;;;5134036;27;20083;-82
2021/01/21 08:51:23;;;;;;;11.93;1.47;;;;;;;;;;5135819;27;20106;-82
2021/01/21 08:53:48;;;;;;;4.67;1.00;;;;;;;;;;5132914;27;20019;-82
2021/01/21 08:56:13;;;;;;;13.60;1.40;;;;;;;;;;5129713;27;20042;-81
2021/01/21 08:58:38;;;;;;;9.17;1.20;;;;;;;;;;5132776;27;20381;-82
2021/01/21 09:01:07;;;;;;;7.57;1.20;;;;;;;;;;5129524;27;20324;-81
2021/01/21 09:03:38;;;;;;;10.73;1.20;;;;;;;;;;5146013;27;20098;-82
2021/01/21 09:06:04;;;;;;;8.73;1.43;;;;;;;;;;5132136;27;20165;-82
2021/01/21 09:08:30;;;;;;;12.57;1.37;;;;;;;;;;5131230;27;20019;-81
2021/01/21 09:10:56;;;;;;;8.47;1.10;;;;;;;;;;5132193;27;20083;-82
2021/01/21 09:13:22;;;;;;;8.37;1.13;;;;;;;;;;5131599;27;20057;-82
2021/01/21 09:15:58;;;;;;;8.90;1.10;;;;;;;;;;5132752;27;20019;-81
2021/01/21 09:18:24;;;;;;;9.00;1.50;;;;;;;;;;5127750;27;20027;-82
2021/01/21 09:20:50;;;;;;;16.07;1.87;;;;;;;;;;5133299;27;20030;-81
2021/01/21 09:23:15;;;;;;;10.17;1.60;;;;;;;;;;5133288;27;20023;-81
2021/01/21 09:25:41;;;;;;;6.30;1.30;;;;;;;;;;5133805;27;20037;-81
2021/01/21 09:28:09;;;;;;;14.40;1.37;;;;;;;;;;5133128;27;20397;-81
2021/01/21 09:30:34;;;;;;;10.00;1.50;;;;;;;;;;5132767;27;20092;-81
2021/01/21 09:32:59;;;;;;;16.53;1.60;;;;;;;;;;5134701;27;20015;-81
2021/01/21 09:35:24;;;;;;;17.20;1.90;;;;;;;;;;5133197;27;20080;-81
2021/01/21 09:37:50;;;;;;;7.63;1.87;;;;;;;;;;5131239;27;20466;-81
2021/01/21 09:40:21;;;;;;;9.83;1.23;;;;;;;;;;5132924;27;20067;-82
2021/01/21 09:42:47;;;;;;;11.13;1.87;;;;;;;;;;5134264;27;20470;-82
2021/01/21 09:45:12;;;;;;;6.20;1.20;;;;;;;;;;5133561;27;20156;-85
2021/01/21 09:47:38;;;;;;;10.30;1.60;;;;;;;;;;5132794;27;20396;-81
2021/01/21 09:50:03;;;;;;;7.47;1.93;;;;;;;;;;5134474;27;20011;-81
2021/01/21 09:52:29;;;;;;;13.30;1.77;;;;;;;;;;5130288;27;20090;-82
2021/01/21 09:54:54;;;;;;;10.33;1.67;;;;;;;;;;5132941;27;20757;-84
2021/01/21 09:57:19;;;;;;;14.57;2.03;;;;;;;;;;5132758;27;20473;-83
2021/01/21 09:59:44;;;;;;;7.97;1.40;;;;;;;;;;5132964;27;20022;-83
2021/01/21 10:02:09;;;;;;;13.30;1.97;;;;;;;;;;5131739;27;20031;-82
2021/01/21 10:04:38;;;;;;;9.10;1.47;;;;;;;;;;5132035;27;20023;-86
2021/01/21 10:07:04;;;;;;;10.20;1.33;;;;;;;;;;5134201;27;20465;-86
2021/01/21 10:09:29;;;;;;;9.63;1.90;;;;;;;;;;5132223;27;20033;-85
2021/01/21 10:11:54;;;;;;;17.63;2.03;;;;;;;;;;5131626;27;20475;-87
2021/01/21 10:14:20;;;;;;;11.63;1.93;;;;;;;;;;5132952;27;20076;-85
2021/01/21 10:16:45;;;;;;;16.63;1.80;;;;;;;;;;5133895;27;20015;-85
2021/01/21 10:19:10;;;;;;;11.77;2.00;;;;;;;;;;5132844;27;20019;-85
2021/01/21 10:21:36;;;;;;;8.63;1.67;;;;;;;;;;5133316;27;20027;-85
2021/01/21 10:24:01;;;;;;;12.37;1.83;;;;;;;;;;5132432;27;20030;-85
2021/01/21 10:26:26;;;;;;;8.17;1.70;;;;;;;;;;5132396;27;20633;-85
2021/01/21 10:28:51;;;;;;;9.90;1.80;;;;;;;;;;5131737;27;20038;-85
2021/01/21 10:31:17;;;;;;;10.07;1.40;;;;;;;;;;5133821;27;20023;-86
2021/01/21 10:33:43;;;;;;;14.60;2.07;;;;;;;;;;5132256;27;20038;-86
2021/01/21 10:36:08;;;;;;;11.40;1.63;;;;;;;;;;5132154;27;20543;-86
2021/01/21 10:38:34;;;;;;;13.33;1.27;;;;;;;;;;5132459;27;20015;-85
2021/01/21 10:40:59;;;;;;;7.73;1.50;;;;;;;;;;5132501;27;20019;-85
2021/01/21 10:43:24;;;;;;;12.87;1.60;;;;;;;;;;5132621;27;20015;-85
2021/01/21 10:45:52;;;;;;;13.47;1.10;;;;;;;;;;5131773;27;20432;-85
2021/01/21 10:48:18;;;;;;;11.67;1.60;;;;;;;;;;5131349;27;20027;-85
2021/01/21 10:50:43;;;;;;;10.10;1.80;;;;;;;;;;5131365;27;20092;-85
2021/01/21 10:53:08;;;;;;;12.43;2.03;;;;;;;;;;5133185;27;20534;-85
2021/01/21 10:55:34;;;;;;;7.77;1.50;;;;;;;;;;5131348;27;20062;-85
2021/01/21 10:57:59;;;;;;;12.37;1.90;;;;;;;;;;5133505;27;20031;-85
2021/01/21 11:00:24;;;;;;;13.40;1.57;;;;;;;;;;5131869;27;20019;-84
2021/01/21 11:02:49;;;;;;;12.87;2.27;;;;;;;;;;5131933;27;20022;-84
2021/01/21 11:05:15;;;;;;;9.83;1.30;;;;;;;;;;5131996;27;20378;-85
2021/01/21 11:07:40;;;;;;;9.17;1.50;;;;;;;;;;5133268;27;20020;-84
2021/01/21 11:10:06;;;;;;;7.40;1.30;;;;;;;;;;5133423;27;20033;-85
2021/01/21 11:12:31;;;;;;;15.87;2.00;;;;;;;;;;5132926;27;20071;-84
2021/01/21 11:14:57;;;;;;;12.70;1.83;;;;;;;;;;5129862;27;20454;-84
2021/01/21 11:17:22;;;;;;;8.53;1.30;;;;;;;;;;5131510;27;20367;-85
2021/01/21 11:19:47;;;;;;;7.70;1.20;;;;;;;;;;5131141;27;20107;-84
2021/01/21 11:22:13;;;;;;;9.57;1.50;;;;;;;;;;5131782;27;20037;-85
2021/01/21 11:24:38;;;;;;;13.63;1.60;;;;;;;;;;5131819;27;20019;-85
2021/01/21 11:27:04;;;;;;;12.00;1.67;;;;;;;;;;5132909;27;20488;-85
2021/01/21 11:29:29;;;;;;;9.27;1.20;;;;;;;;;;5132025;27;20489;-85
2021/01/21 11:31:54;;;;;;;6.63;1.27;;;;;;;;;;5131561;27;20035;-85
2021/01/21 11:34:19;;;;;;;11.13;1.40;;;;;;;;;;5131360;28;20146;-84
2021/01/21 11:36:45;;;;;;;6.40;1.20;;;;;;;;;;5131990;28;20606;-85
2021/01/21 11:39:10;;;;;;;8.07;1.23;;;;;;;;;;5132864;28;20351;-85
2021/01/21 11:41:35;;;;;;;11.67;1.43;;;;;;;;;;5127844;27;20737;-84
2021/01/21 11:44:01;;;;;;;13.97;1.60;;;;;;;;;;5116100;28;20030;-84
2021/01/21 11:46:26;;;;;;;7.40;1.20;;;;;;;;;;5117290;27;20034;-84
2021/01/21 11:48:52;;;;;;;14.83;1.43;;;;;;;;;;5107295;28;20567;-85
2021/01/21 11:51:18;;;;;;;8.43;1.67;;;;;;;;;;5119478;27;20402;-84
2021/01/21 11:53:43;;;;;;;9.70;1.40;;;;;;;;;;5130962;28;20047;-85
2021/01/21 11:56:08;;;;;;;8.00;1.17;;;;;;;;;;5131023;28;20025;-84
2021/01/21 11:58:33;;;;;;;9.73;1.30;;;;;;;;;;5130766;27;20477;-85
2021/01/21 12:00:59;;;;;;;9.93;1.20;;;;;;;;;;5134861;27;20031;-85
2021/01/21 12:03:24;;;;;;;10.73;1.10;;;;;;;;;;5135456;27;20412;-85
2021/01/21 12:05:49;;;;;;;9.90;1.63;;;;;;;;;;5134888;27;20475;-85
2021/01/21 12:08:15;;;;;;;10.90;1.27;;;;;;;;;;5135004;27;20027;-85
2021/01/21 12:10:40;;;;;;;7.93;1.47;;;;;;;;;;5135211;27;20026;-85
2021/01/21 12:13:05;;;;;;;7.50;1.07;;;;;;;;;;5134423;27;20023;-85
2021/01/21 12:15:30;;;;;;;10.77;1.20;;;;;;;;;;5127250;27;20031;-85
2021/01/21 12:17:55;;;;;;;9.33;1.30;;;;;;;;;;5134153;27;20030;-85
2021/01/21 12:20:21;;;;;;;9.20;1.37;;;;;;;;;;5131531;27;20470;-84
2021/01/21 12:22:46;;;;;;;8.27;1.17;;;;;;;;;;5132500;27;20042;-85
2021/01/21 12:25:11;;;;;;;5.43;0.90;;;;;;;;;;5134599;27;20280;-86
2021/01/21 12:27:36;;;;;;;10.97;1.63;;;;;;;;;;5130342;27;20016;-86
2021/01/21 12:30:02;;;;;;;12.03;1.23;;;;;;;;;;5134817;27;20023;-85
2021/01/21 12:32:27;;;;;;;9.67;1.00;;;;;;;;;;5134490;27;20076;-85
2021/01/21 12:34:53;;;;;;;8.23;1.17;;;;;;;;;;5136070;27;20011;-85
2021/01/21 12:37:18;;;;;;;7.13;1.00;;;;;;;;;;5134449;27;20053;-84
2021/01/21 12:39:43;;;;;;;11.97;1.60;;;;;;;;;;5134645;27;20443;-84
2021/01/21 12:42:08;;;;;;;4.43;0.90;;;;;;;;;;5134330;27;20023;-84
2021/01/21 12:44:34;;;;;;;9.97;1.80;;;;;;;;;;5132454;27;20106;-85
2021/01/21 12:46:59;;;;;;;10.07;1.73;;;;;;;;;;5133868;27;20066;-84
2021/01/21 12:49:24;;;;;;;5.90;1.00;;;;;;;;;;5134856;27;20019;-84
2021/01/21 12:51:49;;;;;;;9.17;1.40;;;;;;;;;;5133338;27;20431;-84
2021/01/21 12:54:15;;;;;;;3.27;0.80;;;;;;;;;;5120832;27;20015;-84
2021/01/21 12:56:40;;;;;;;9.40;1.00;;;;;;;;;;5134230;27;20023;-84
2021/01/21 12:59:05;;;;;;;7.07;1.43;;;;;;;;;;5133618;27;20138;-84
2021/01/21 13:01:30;;;;;;;9.20;1.40;;;;;;;;;;5135530;27;20025;-84
2021/01/21 13:03:55;;;;;;;8.63;1.53;;;;;;;;;;5134586;27;20592;-84
2021/01/21 13:06:21;;;;;;;10.77;1.40;;;;;;;;;;5125527;27;20024;-83
2021/01/21 13:08:46;;;;;;;11.20;1.60;;;;;;;;;;5124498;27;20023;-84
2021/01/21 13:11:11;;;;;;;16.60;1.40;;;;;;;;;;5122059;27;20047;-83
2021/01/21 13:13:36;;;;;;;10.43;1.70;;;;;;;;;;5132479;27;20110;-83
2021/01/21 13:16:01;;;;;;;7.00;1.40;;;;;;;;;;5134223;27;20109;-85
2021/01/21 13:18:27;;;;;;;6.63;1.10;;;;;;;;;;5133967;27;20036;-85
2021/01/21 13:20:52;;;;;;;9.90;1.20;;;;;;;;;;5135364;27;20026;-85
2021/01/21 13:23:18;;;;;;;11.60;1.43;;;;;;;;;;5133064;27;20114;-84
2021/01/21 13:25:43;;;;;;;9.70;1.10;;;;;;;;;;5133488;27;20377;-84
2021/01/21 13:28:08;;;;;;;12.33;1.13;;;;;;;;;;5133213;27;20027;-84
2021/01/21 13:30:34;;;;;;;7.53;1.33;;;;;;;;;;5133779;27;20075;-84
2021/01/21 13:32:59;;;;;;;9.93;1.50;;;;;;;;;;5133234;27;20035;-84
2021/01/21 13:35:24;;;;;;;7.67;1.70;;;;;;;;;;5129078;27;20390;-84
2021/01/21 13:37:49;;;;;;;12.17;1.20;;;;;;;;;;5133217;27;20042;-85
2021/01/21 13:40:15;;;;;;;11.73;1.53;;;;;;;;;;5133032;27;20072;-85
2021/01/21 13:42:40;;;;;;;9.00;1.20;;;;;;;;;;5133406;27;20027;-84
2021/01/21 13:45:07;;;;;;;9.57;1.70;;;;;;;;;;5129849;27;20047;-84
2021/01/21 13:47:32;;;;;;;13.97;1.27;;;;;;;;;;5133478;27;20110;-84
2021/01/21 13:49:57;;;;;;;10.83;1.53;;;;;;;;;;5133129;27;20106;-83
2021/01/21 13:52:22;;;;;;;8.70;1.20;;;;;;;;;;5132059;27;20072;-84
2021/01/21 13:54:47;;;;;;;10.37;1.40;;;;;;;;;;5133439;27;20394;-85
2021/01/21 13:57:13;;;;;;;7.77;1.50;;;;;;;;;;5132590;27;20023;-84
2021/01/21 13:59:38;;;;;;;6.97;1.17;;;;;;;;;;5134081;27;20047;-84
2021/01/21 14:02:03;;;;;;;10.00;1.27;;;;;;;;;;5132907;27;20080;-84
2021/01/21 14:04:28;;;;;;;6.47;0.90;;;;;;;;;;5134374;27;20466;-83
2021/01/21 14:06:53;;;;;;;11.10;1.60;;;;;;;;;;5128572;27;20579;-85
2021/01/21 14:09:19;;;;;;;8.97;1.17;;;;;;;;;;5118965;27;20024;-84
2021/01/21 14:11:45;;;;;;;12.57;1.43;;;;;;;;;;5129694;27;20015;-84
2021/01/21 14:14:11;;;;;;;15.13;2.00;;;;;;;;;;5133011;27;20087;-84
2021/01/21 14:16:36;;;;;;;15.83;1.30;;;;;;;;;;5132634;27;20039;-85
2021/01/21 14:19:01;;;;;;;6.47;1.00;;;;;;;;;;5132320;27;20048;-84
2021/01/21 14:21:26;;;;;;;9.80;1.33;;;;;;;;;;5132173;27;20023;-87
2021/01/21 14:23:51;;;;;;;7.93;0.90;;;;;;;;;;5133738;27;20064;-84
2021/01/21 14:26:17;;;;;;;10.03;1.77;;;;;;;;;;5132000;27;20019;-84
2021/01/21 14:28:42;;;;;;;11.10;2.07;;;;;;;;;;5129977;27;20058;-83
2021/01/21 14:31:07;;;;;;;8.87;0.97;;;;;;;;;;5125257;27;20011;-84
2021/01/21 14:33:32;;;;;;;9.67;1.30;;;;;;;;;;5132591;27;20079;-85